createdAt,value
2016-08-17T00:00:18.259Z,952.48
2016-08-17T00:01:18.394Z,952.53
2016-08-17T00:02:22.579Z,952.55
2016-08-17T00:03:25.770Z,952.58
2016-08-17T00:04:25.964Z,952.60
2016-08-17T00:05:29.908Z,952.60
2016-08-17T00:06:18.119Z,952.58
2016-08-17T00:07:28.999Z,952.57
2016-08-17T00:09:25.623Z,952.55
2016-08-17T00:10:23.109Z,952.58
2016-08-17T00:11:26.302Z,952.53
2016-08-17T00:12:25.493Z,952.57
2016-08-17T00:13:28.648Z,952.50
2016-08-17T00:15:27.663Z,952.57
2016-08-17T00:16:29.221Z,952.54
2016-08-17T00:17:25.351Z,952.57
2016-08-17T00:18:21.893Z,952.54
2016-08-17T00:19:18.779Z,952.57
2016-08-17T00:20:25.974Z,952.57
2016-08-17T00:21:29.428Z,952.58
2016-08-17T00:25:17.939Z,952.56
2016-08-17T00:26:19.169Z,952.50
2016-08-17T00:27:28.474Z,952.48
2016-08-17T00:28:28.344Z,952.52
2016-08-17T00:29:25.535Z,952.55
2016-08-17T00:30:25.727Z,952.58
2016-08-17T00:31:25.927Z,952.51
2016-08-17T00:32:34.210Z,952.54
2016-08-17T00:33:25.422Z,952.54
2016-08-17T00:34:25.620Z,952.52
2016-08-17T00:37:25.564Z,952.50
2016-08-17T00:38:28.712Z,952.51
2016-08-17T00:39:26.959Z,952.52
2016-08-17T00:40:26.144Z,952.55
2016-08-17T00:43:18.869Z,952.53
2016-08-17T00:44:21.435Z,952.52
2016-08-17T00:45:28.797Z,952.52
2016-08-17T00:46:26.012Z,952.50
2016-08-17T00:48:25.886Z,952.51
2016-08-17T00:49:13.813Z,952.52
2016-08-17T00:50:25.764Z,952.51
2016-08-17T00:51:25.989Z,952.51
2016-08-17T00:52:22.550Z,952.50
2016-08-17T00:53:31.739Z,952.52
2016-08-17T00:54:25.944Z,952.58
2016-08-17T00:55:26.147Z,952.60
2016-08-17T00:58:25.613Z,952.64
2016-08-17T00:59:25.834Z,952.66
2016-08-17T01:00:29.039Z,952.67
2016-08-17T01:02:28.123Z,952.67
2016-08-17T01:05:28.575Z,952.60
2016-08-17T01:06:28.724Z,952.58
2016-08-17T01:07:25.925Z,952.55
2016-08-17T01:08:28.305Z,952.55
2016-08-17T01:09:25.481Z,952.58
2016-08-17T01:10:28.770Z,952.52
2016-08-17T01:11:29.079Z,952.53
2016-08-17T01:12:25.388Z,952.49
2016-08-17T01:13:28.571Z,952.50
2016-08-17T01:14:18.260Z,952.51
2016-08-17T01:15:25.458Z,952.51
2016-08-17T01:16:34.705Z,952.47
2016-08-17T01:17:25.720Z,952.47
2016-08-17T01:18:28.971Z,952.47
2016-08-17T01:19:26.173Z,952.49
2016-08-17T01:20:26.373Z,952.50
2016-08-17T01:21:28.751Z,952.50
2016-08-17T01:22:25.932Z,952.50
2016-08-17T01:23:28.436Z,952.52
2016-08-17T01:24:29.726Z,952.50
2016-08-17T01:25:29.235Z,952.49
2016-08-17T01:26:33.907Z,952.51
2016-08-17T01:27:30.495Z,952.51
2016-08-17T01:28:31.147Z,952.54
2016-08-17T01:29:25.562Z,952.50
2016-08-17T01:30:25.771Z,952.55
2016-08-17T01:31:26.026Z,952.56
2016-08-17T01:32:20.251Z,952.55
2016-08-17T01:33:22.999Z,952.53
2016-08-17T01:34:26.169Z,952.55
2016-08-17T01:35:20.404Z,952.54
2016-08-17T01:36:30.152Z,952.52
2016-08-17T01:37:34.786Z,952.50
2016-08-17T01:38:27.804Z,952.51
2016-08-17T01:39:32.123Z,952.50
2016-08-17T01:40:28.609Z,952.48
2016-08-17T01:41:25.815Z,952.46
2016-08-17T01:42:26.005Z,952.45
2016-08-17T01:43:27.839Z,952.48
2016-08-17T01:44:25.866Z,952.45
2016-08-17T01:45:25.321Z,952.48
2016-08-17T01:46:28.485Z,952.52
2016-08-17T01:47:25.685Z,952.53
2016-08-17T01:48:29.340Z,952.50
2016-08-17T01:49:26.020Z,952.56
2016-08-17T01:50:28.465Z,952.51
2016-08-17T01:51:28.051Z,952.56
2016-08-17T01:52:26.301Z,952.51
2016-08-17T01:53:28.392Z,952.52
2016-08-17T01:54:25.572Z,952.43
2016-08-17T01:55:34.001Z,952.39
2016-08-17T01:56:28.391Z,952.49
2016-08-17T01:57:25.604Z,952.46
2016-08-17T01:59:25.891Z,952.43
2016-08-17T02:00:25.597Z,952.52
2016-08-17T02:01:25.805Z,952.48
2016-08-17T02:02:29.106Z,952.48
2016-08-17T02:05:25.594Z,952.47
2016-08-17T02:06:24.822Z,952.48
2016-08-17T02:07:26.037Z,952.46
2016-08-17T02:08:26.262Z,952.45
2016-08-17T02:09:25.489Z,952.43
2016-08-17T02:10:25.700Z,952.42
2016-08-17T02:11:31.887Z,952.46
2016-08-17T02:12:26.051Z,952.44
2016-08-17T02:13:20.232Z,952.46
2016-08-17T02:14:25.402Z,952.44
2016-08-17T02:15:36.193Z,952.48
2016-08-17T02:16:25.405Z,952.44
2016-08-17T02:17:28.439Z,952.46
2016-08-17T02:18:17.571Z,952.47
2016-08-17T02:19:25.537Z,952.49
2016-08-17T02:20:25.729Z,952.47
2016-08-17T02:21:18.849Z,952.52
2016-08-17T02:22:29.378Z,952.46
2016-08-17T02:23:25.552Z,952.50
2016-08-17T02:24:28.335Z,952.48
2016-08-17T02:25:17.642Z,952.47
2016-08-17T02:26:25.845Z,952.49
2016-08-17T02:27:26.058Z,952.45
2016-08-17T02:29:25.903Z,952.47
2016-08-17T02:31:25.697Z,952.46
2016-08-17T02:32:29.868Z,952.45
2016-08-17T02:33:26.060Z,952.46
2016-08-17T02:34:26.264Z,952.45
2016-08-17T02:35:28.520Z,952.43
2016-08-17T02:36:25.714Z,952.44
2016-08-17T02:37:26.916Z,952.46
2016-08-17T02:38:35.233Z,952.45
2016-08-17T02:39:18.551Z,952.46
2016-08-17T02:40:25.731Z,952.48
2016-08-17T02:42:25.569Z,952.48
2016-08-17T02:43:25.781Z,952.49
2016-08-17T02:44:25.977Z,952.47
2016-08-17T02:45:18.351Z,952.46
2016-08-17T02:46:28.541Z,952.44
2016-08-17T02:47:19.359Z,952.44
2016-08-17T02:48:25.535Z,952.42
2016-08-17T02:49:28.902Z,952.41
2016-08-17T02:50:28.213Z,952.40
2016-08-17T02:51:28.584Z,952.38
2016-08-17T02:52:25.620Z,952.35
2016-08-17T02:54:28.402Z,952.38
2016-08-17T02:55:25.583Z,952.31
2016-08-17T02:56:33.980Z,952.35
2016-08-17T02:57:25.603Z,952.33
2016-08-17T02:58:26.254Z,952.31
2016-08-17T02:59:21.940Z,952.32
2016-08-17T03:00:26.143Z,952.29
2016-08-17T03:01:18.658Z,952.26
2016-08-17T03:02:18.847Z,952.26
2016-08-17T03:03:29.014Z,952.25
2016-08-17T03:04:28.555Z,952.30
2016-08-17T03:05:29.245Z,952.28
2016-08-17T03:06:32.460Z,952.24
2016-08-17T03:07:19.045Z,952.25
2016-08-17T03:08:29.198Z,952.24
2016-08-17T03:09:24.524Z,952.22
2016-08-17T03:10:18.549Z,952.20
2016-08-17T03:11:29.731Z,952.24
2016-08-17T03:12:31.072Z,952.23
2016-08-17T03:13:29.232Z,952.25
2016-08-17T03:15:29.277Z,952.27
2016-08-17T03:16:30.597Z,952.26
2016-08-17T03:20:35.494Z,952.22
2016-08-17T03:21:28.900Z,952.28
2016-08-17T03:22:33.031Z,952.27
2016-08-17T03:23:25.576Z,952.27
2016-08-17T03:24:30.857Z,952.27
2016-08-17T03:25:25.698Z,952.27
2016-08-17T03:26:28.974Z,952.28
2016-08-17T03:27:26.167Z,952.29
2016-08-17T03:28:28.163Z,952.29
2016-08-17T03:29:28.434Z,952.27
2016-08-17T03:30:18.180Z,952.27
2016-08-17T03:31:31.727Z,952.31
2016-08-17T03:32:25.946Z,952.32
2016-08-17T03:33:22.639Z,952.41
2016-08-17T03:34:34.800Z,952.44
2016-08-17T03:35:25.985Z,952.46
2016-08-17T03:36:25.534Z,952.44
2016-08-17T03:37:29.709Z,952.44
2016-08-17T03:38:28.925Z,952.42
2016-08-17T03:39:22.083Z,952.39
2016-08-17T03:40:12.003Z,952.36
2016-08-17T03:41:28.039Z,952.34
2016-08-17T03:42:26.276Z,952.35
2016-08-17T03:43:24.929Z,952.39
2016-08-17T03:44:29.288Z,952.35
2016-08-17T03:45:25.474Z,952.38
2016-08-17T03:46:25.658Z,952.35
2016-08-17T03:47:28.276Z,952.34
2016-08-17T03:48:18.703Z,952.35
2016-08-17T03:49:29.991Z,952.33
2016-08-17T03:50:26.179Z,952.33
2016-08-17T03:51:32.351Z,952.32
2016-08-17T03:52:25.535Z,952.35
2016-08-17T03:53:28.095Z,952.32
2016-08-17T03:54:29.280Z,952.32
2016-08-17T03:55:28.436Z,952.37
2016-08-17T03:56:25.637Z,952.40
2016-08-17T03:57:31.355Z,952.38
2016-08-17T03:58:32.902Z,952.33
2016-08-17T03:59:21.025Z,952.34
2016-08-17T04:00:26.247Z,952.33
2016-08-17T04:01:25.451Z,952.33
2016-08-17T04:02:25.650Z,952.32
2016-08-17T04:03:29.925Z,952.35
2016-08-17T04:04:26.136Z,952.32
2016-08-17T04:05:26.342Z,952.30
2016-08-17T04:06:25.537Z,952.28
2016-08-17T04:07:25.747Z,952.30
2016-08-17T04:08:22.303Z,952.29
2016-08-17T04:09:28.872Z,952.28
2016-08-17T04:11:25.686Z,952.31
2016-08-17T04:13:25.544Z,952.30
2016-08-17T04:14:29.679Z,952.36
2016-08-17T04:17:27.052Z,952.39
2016-08-17T04:18:26.249Z,952.38
2016-08-17T04:19:28.538Z,952.42
2016-08-17T04:20:18.285Z,952.43
2016-08-17T04:21:25.471Z,952.42
2016-08-17T04:22:25.653Z,952.41
2016-08-17T04:25:29.109Z,952.46
2016-08-17T04:26:25.588Z,952.48
2016-08-17T04:28:26.013Z,952.43
2016-08-17T04:29:34.287Z,952.46
2016-08-17T04:30:31.542Z,952.44
2016-08-17T04:31:24.891Z,952.46
2016-08-17T04:32:29.350Z,952.46
2016-08-17T04:33:18.526Z,952.45
2016-08-17T04:37:25.589Z,952.49
2016-08-17T04:38:28.744Z,952.50
2016-08-17T04:39:28.355Z,952.48
2016-08-17T04:40:31.538Z,952.51
2016-08-17T04:41:37.463Z,952.51
2016-08-17T04:42:29.729Z,952.56
2016-08-17T04:43:25.956Z,952.48
2016-08-17T04:44:29.288Z,952.53
2016-08-17T04:47:25.765Z,952.60
2016-08-17T04:51:25.882Z,952.61
2016-08-17T04:53:25.693Z,952.59
2016-08-17T04:54:25.885Z,952.59
2016-08-17T04:55:26.062Z,952.54
2016-08-17T04:57:28.925Z,952.51
2016-08-17T04:58:26.307Z,952.52
2016-08-17T04:59:25.505Z,952.51
2016-08-17T05:01:28.473Z,952.53
2016-08-17T05:02:25.570Z,952.57
2016-08-17T05:04:18.309Z,952.49
2016-08-17T05:05:34.622Z,952.51
2016-08-17T05:06:26.249Z,952.56
2016-08-17T05:07:25.440Z,952.56
2016-08-17T05:08:31.654Z,952.54
2016-08-17T05:09:29.815Z,952.58
2016-08-17T05:10:28.454Z,952.60
2016-08-17T05:11:18.355Z,952.55
2016-08-17T05:12:36.102Z,952.56
2016-08-17T05:14:25.941Z,952.53
2016-08-17T05:15:35.375Z,952.53
2016-08-17T05:17:25.737Z,952.52
2016-08-17T05:18:25.314Z,952.52
2016-08-17T05:21:26.343Z,952.49
2016-08-17T05:22:31.591Z,952.58
2016-08-17T05:23:17.681Z,952.54
2016-08-17T05:24:28.877Z,952.52
2016-08-17T05:26:31.733Z,952.55
2016-08-17T05:28:26.530Z,952.52
2016-08-17T05:30:26.388Z,952.52
2016-08-17T05:31:27.838Z,952.51
2016-08-17T05:32:26.671Z,952.48
2016-08-17T05:33:25.877Z,952.53
2016-08-17T05:34:25.679Z,952.48
2016-08-17T05:35:29.850Z,952.51
2016-08-17T05:36:25.386Z,952.53
2016-08-17T05:37:28.063Z,952.50
2016-08-17T05:38:26.274Z,952.52
2016-08-17T05:40:29.103Z,952.52
2016-08-17T05:41:26.413Z,952.51
2016-08-17T05:42:25.039Z,952.46
2016-08-17T05:43:25.443Z,952.52
2016-08-17T05:44:28.630Z,952.49
2016-08-17T05:45:25.176Z,952.51
2016-08-17T05:46:25.414Z,952.51
2016-08-17T05:47:27.707Z,952.55
2016-08-17T05:48:25.911Z,952.52
2016-08-17T05:49:26.129Z,952.54
2016-08-17T05:50:35.828Z,952.49
2016-08-17T05:51:35.168Z,952.48
2016-08-17T05:52:26.372Z,952.47
2016-08-17T05:53:35.231Z,952.44
2016-08-17T05:54:31.467Z,952.45
2016-08-17T05:55:25.677Z,952.46
2016-08-17T05:56:26.881Z,952.55
2016-08-17T05:57:25.708Z,952.51
2016-08-17T05:58:28.147Z,952.49
2016-08-17T05:59:26.358Z,952.48
2016-08-17T06:00:26.201Z,952.48
2016-08-17T06:01:28.462Z,952.46
2016-08-17T06:02:30.757Z,952.53
2016-08-17T06:03:30.871Z,952.55
2016-08-17T06:04:26.070Z,952.52
2016-08-17T06:05:25.425Z,952.50
2016-08-17T06:06:25.925Z,952.50
2016-08-17T06:07:26.104Z,952.49
2016-08-17T06:09:31.924Z,952.54
2016-08-17T06:10:22.986Z,952.52
2016-08-17T06:11:28.653Z,952.51
2016-08-17T06:12:25.051Z,952.52
2016-08-17T06:13:26.234Z,952.49
2016-08-17T06:14:25.984Z,952.49
2016-08-17T06:15:28.472Z,952.54
2016-08-17T06:16:25.617Z,952.52
2016-08-17T06:17:28.804Z,952.55
2016-08-17T06:18:34.244Z,952.53
2016-08-17T06:19:25.442Z,952.54
2016-08-17T06:20:31.624Z,952.57
2016-08-17T06:21:28.575Z,952.53
2016-08-17T06:22:29.693Z,952.56
2016-08-17T06:23:34.247Z,952.61
2016-08-17T06:25:28.496Z,952.58
2016-08-17T06:26:25.678Z,952.60
2016-08-17T06:27:34.132Z,952.56
2016-08-17T06:28:19.652Z,952.58
2016-08-17T06:30:25.477Z,952.56
2016-08-17T06:31:25.655Z,952.60
2016-08-17T06:32:25.423Z,952.58
2016-08-17T06:33:18.928Z,952.65
2016-08-17T06:34:28.351Z,952.68
2016-08-17T06:35:28.528Z,952.69
2016-08-17T06:36:25.749Z,952.66
2016-08-17T06:37:28.955Z,952.61
2016-08-17T06:38:20.882Z,952.67
2016-08-17T06:39:19.493Z,952.62
2016-08-17T06:40:28.908Z,952.65
2016-08-17T06:41:27.558Z,952.61
2016-08-17T06:42:28.709Z,952.63
2016-08-17T06:43:28.215Z,952.64
2016-08-17T06:44:27.602Z,952.65
2016-08-17T06:45:27.987Z,952.65
2016-08-17T06:46:18.157Z,952.66
2016-08-17T06:47:26.093Z,952.66
2016-08-17T06:48:19.318Z,952.70
2016-08-17T06:49:18.003Z,952.65
2016-08-17T06:50:19.305Z,952.70
2016-08-17T06:51:25.505Z,952.68
2016-08-17T06:52:25.565Z,952.69
2016-08-17T06:53:29.212Z,952.71
2016-08-17T06:54:24.842Z,952.64
2016-08-17T06:55:22.603Z,952.72
2016-08-17T06:56:18.373Z,952.67
2016-08-17T06:57:32.606Z,952.72
2016-08-17T06:58:28.522Z,952.76
2016-08-17T07:00:26.348Z,952.73
2016-08-17T07:01:25.156Z,952.68
2016-08-17T07:02:29.405Z,952.71
2016-08-17T07:05:25.955Z,952.70
2016-08-17T07:06:29.154Z,952.72
2016-08-17T07:07:31.699Z,952.73
2016-08-17T07:08:17.796Z,952.73
2016-08-17T07:09:28.939Z,952.71
2016-08-17T07:10:28.481Z,952.68
2016-08-17T07:11:29.199Z,952.69
2016-08-17T07:12:25.301Z,952.71
2016-08-17T07:13:28.475Z,952.68
2016-08-17T07:14:31.789Z,952.68
2016-08-17T07:15:25.982Z,952.64
2016-08-17T07:16:26.201Z,952.64
2016-08-17T07:17:36.324Z,952.73
2016-08-17T07:18:19.105Z,952.73
2016-08-17T07:19:25.492Z,952.66
2016-08-17T07:20:28.724Z,952.67
2016-08-17T07:22:29.254Z,952.71
2016-08-17T07:23:18.692Z,952.74
2016-08-17T07:24:25.238Z,952.72
2016-08-17T07:25:33.994Z,952.67
2016-08-17T07:27:33.133Z,952.69
2016-08-17T07:28:26.327Z,952.74
2016-08-17T07:29:28.500Z,952.74
2016-08-17T07:30:26.600Z,952.72
2016-08-17T07:31:32.197Z,952.73
2016-08-17T07:32:18.403Z,952.78
2016-08-17T07:38:23.040Z,952.73
2016-08-17T07:39:34.706Z,952.74
2016-08-17T07:40:26.384Z,952.74
2016-08-17T07:42:29.290Z,952.75
2016-08-17T07:44:26.102Z,952.78
2016-08-17T07:45:28.619Z,952.75
2016-08-17T07:46:25.860Z,952.79
2016-08-17T07:47:32.006Z,952.79
2016-08-17T07:48:30.589Z,952.75
2016-08-17T07:49:18.765Z,952.75
2016-08-17T07:51:52.794Z,952.74
2016-08-17T07:52:31.093Z,952.74
2016-08-17T07:53:19.345Z,952.75
2016-08-17T07:54:25.570Z,952.83
2016-08-17T07:55:37.311Z,952.76
2016-08-17T07:57:29.075Z,952.75
2016-08-17T07:59:35.318Z,952.76
2016-08-17T08:00:32.578Z,952.82
2016-08-17T08:02:25.681Z,952.77
2016-08-17T08:03:28.844Z,952.82
2016-08-17T08:04:28.980Z,952.74
2016-08-17T08:05:32.147Z,952.77
2016-08-17T08:06:35.583Z,952.80
2016-08-17T08:07:26.346Z,952.73
2016-08-17T08:08:25.553Z,952.76
2016-08-17T08:09:25.765Z,952.78
2016-08-17T08:10:35.394Z,952.77
2016-08-17T08:11:25.594Z,952.74
2016-08-17T08:12:28.775Z,952.75
2016-08-17T08:13:25.982Z,952.79
2016-08-17T08:14:26.183Z,952.77
2016-08-17T08:15:30.499Z,952.80
2016-08-17T08:16:27.926Z,952.80
2016-08-17T08:17:25.153Z,952.78
2016-08-17T08:18:32.302Z,952.77
2016-08-17T08:20:27.961Z,952.82
2016-08-17T08:21:29.636Z,952.81
2016-08-17T08:22:27.479Z,952.82
2016-08-17T08:23:28.246Z,952.79
2016-08-17T08:24:18.837Z,952.84
2016-08-17T08:26:28.653Z,952.83
2016-08-17T08:27:32.605Z,952.89
2016-08-17T08:28:31.803Z,952.83
2016-08-17T08:29:29.026Z,952.79
2016-08-17T08:32:34.621Z,952.71
2016-08-17T08:34:28.967Z,952.78
2016-08-17T08:35:25.688Z,952.73
2016-08-17T08:36:30.886Z,952.77
2016-08-17T08:37:33.595Z,952.74
2016-08-17T08:38:25.705Z,952.75
2016-08-17T08:39:35.121Z,952.69
2016-08-17T08:40:28.466Z,952.75
2016-08-17T08:41:25.658Z,952.75
2016-08-17T08:42:31.871Z,952.74
2016-08-17T08:43:19.173Z,952.74
2016-08-17T08:44:29.318Z,952.69
2016-08-17T08:45:28.563Z,952.75
2016-08-17T08:46:27.936Z,952.72
2016-08-17T08:47:18.617Z,952.72
2016-08-17T08:48:25.803Z,952.75
2016-08-17T08:49:25.991Z,952.75
2016-08-17T08:50:26.194Z,952.75
2016-08-17T08:51:28.481Z,952.72
2016-08-17T08:52:32.299Z,952.74
2016-08-17T08:53:25.522Z,952.80
2016-08-17T08:54:28.703Z,952.80
2016-08-17T08:56:28.063Z,952.77
2016-08-17T08:57:26.725Z,952.80
2016-08-17T08:58:19.941Z,952.79
2016-08-17T08:59:26.135Z,952.79
2016-08-17T09:00:29.350Z,952.74
2016-08-17T09:01:52.024Z,952.74
2016-08-17T09:02:26.164Z,952.70
2016-08-17T09:03:29.362Z,952.70
2016-08-17T09:04:31.014Z,952.71
2016-08-17T09:05:34.416Z,952.75
2016-08-17T09:06:28.616Z,952.68
2016-08-17T09:07:28.772Z,952.69
2016-08-17T09:09:28.533Z,952.72
2016-08-17T09:10:25.748Z,952.69
2016-08-17T09:11:25.988Z,952.67
2016-08-17T09:12:28.405Z,952.73
2016-08-17T09:13:28.022Z,952.72
2016-08-17T09:14:34.682Z,952.68
2016-08-17T09:15:23.969Z,952.68
2016-08-17T09:16:26.193Z,952.69
2016-08-17T09:17:27.503Z,952.74
2016-08-17T09:18:25.312Z,952.67
2016-08-17T09:19:17.681Z,952.68
2016-08-17T09:20:28.811Z,952.68
2016-08-17T09:21:22.385Z,952.62
2016-08-17T09:22:22.549Z,952.62
2016-08-17T09:23:28.682Z,952.60
2016-08-17T09:24:25.436Z,952.59
2016-08-17T09:25:22.594Z,952.61
2016-08-17T09:26:31.804Z,952.60
2016-08-17T09:28:22.589Z,952.63
2016-08-17T09:29:26.330Z,952.63
2016-08-17T09:30:28.457Z,952.66
2016-08-17T09:31:27.935Z,952.64
2016-08-17T09:32:23.122Z,952.67
2016-08-17T09:33:25.577Z,952.71
2016-08-17T09:34:25.790Z,952.67
2016-08-17T09:35:28.960Z,952.66
2016-08-17T09:36:26.717Z,952.67
2016-08-17T09:37:25.937Z,952.70
2016-08-17T09:38:26.132Z,952.69
2016-08-17T09:39:29.334Z,952.70
2016-08-17T09:40:27.669Z,952.69
2016-08-17T09:41:28.839Z,952.65
2016-08-17T09:42:26.047Z,952.65
2016-08-17T09:43:26.891Z,952.69
2016-08-17T09:44:35.543Z,952.65
2016-08-17T09:45:28.787Z,952.69
2016-08-17T09:46:28.957Z,952.65
2016-08-17T09:47:30.126Z,952.68
2016-08-17T09:48:26.317Z,952.68
2016-08-17T09:49:28.485Z,952.70
2016-08-17T09:50:28.980Z,952.67
2016-08-17T09:51:26.682Z,952.73
2016-08-17T09:52:28.383Z,952.70
2016-08-17T09:53:29.478Z,952.70
2016-08-17T09:54:23.182Z,952.65
2016-08-17T09:55:28.441Z,952.67
2016-08-17T09:56:25.757Z,952.65
2016-08-17T09:57:28.160Z,952.66
2016-08-17T09:58:25.453Z,952.65
2016-08-17T09:59:28.561Z,952.66
2016-08-17T10:00:25.771Z,952.66
2016-08-17T10:01:22.587Z,952.66
2016-08-17T10:02:31.365Z,952.68
2016-08-17T10:03:28.330Z,952.67
2016-08-17T10:04:25.547Z,952.63
2016-08-17T10:05:28.806Z,952.61
2016-08-17T10:06:28.176Z,952.61
2016-08-17T10:07:34.685Z,952.60
2016-08-17T10:08:26.351Z,952.57
2016-08-17T10:09:28.518Z,952.58
2016-08-17T10:10:31.777Z,952.54
2016-08-17T10:11:29.545Z,952.56
2016-08-17T10:12:26.246Z,952.57
2016-08-17T10:13:33.646Z,952.55
2016-08-17T10:14:25.951Z,952.55
2016-08-17T10:15:29.205Z,952.57
2016-08-17T10:16:30.047Z,952.57
2016-08-17T10:17:26.252Z,952.58
2016-08-17T10:18:28.752Z,952.54
2016-08-17T10:19:25.944Z,952.55
2016-08-17T10:20:20.408Z,952.52
2016-08-17T10:21:25.704Z,952.54
2016-08-17T10:22:33.408Z,952.53
2016-08-17T10:24:26.229Z,952.58
2016-08-17T10:26:26.045Z,952.49
2016-08-17T10:28:25.827Z,952.50
2016-08-17T10:29:25.839Z,952.53
2016-08-17T10:30:29.000Z,952.51
2016-08-17T10:31:23.419Z,952.51
2016-08-17T10:32:25.645Z,952.55
2016-08-17T10:33:24.871Z,952.54
2016-08-17T10:35:25.675Z,952.49
2016-08-17T10:37:31.044Z,952.46
2016-08-17T10:38:27.276Z,952.46
2016-08-17T10:39:34.240Z,952.51
2016-08-17T10:40:25.383Z,952.52
2016-08-17T10:41:25.603Z,952.50
2016-08-17T10:42:25.854Z,952.52
2016-08-17T10:43:25.523Z,952.46
2016-08-17T10:44:29.230Z,952.46
2016-08-17T10:45:39.583Z,952.47
2016-08-17T10:46:32.053Z,952.46
2016-08-17T10:47:26.314Z,952.49
2016-08-17T10:48:36.895Z,952.48
2016-08-17T10:49:34.188Z,952.46
2016-08-17T10:50:26.393Z,952.47
2016-08-17T10:51:17.895Z,952.47
2016-08-17T10:52:28.703Z,952.48
2016-08-17T10:53:25.879Z,952.52
2016-08-17T10:54:32.578Z,952.48
2016-08-17T10:55:18.788Z,952.47
2016-08-17T10:59:17.820Z,952.42
2016-08-17T11:00:25.821Z,952.41
2016-08-17T11:01:28.937Z,952.40
2016-08-17T11:02:25.706Z,952.38
2016-08-17T11:03:25.411Z,952.38
2016-08-17T11:04:25.608Z,952.33
2016-08-17T11:05:29.281Z,952.37
2016-08-17T11:06:27.952Z,952.31
2016-08-17T11:07:26.117Z,952.28
2016-08-17T11:08:26.324Z,952.29
2016-08-17T11:09:31.643Z,952.28
2016-08-17T11:10:25.918Z,952.22
2016-08-17T11:11:29.076Z,952.29
2016-08-17T11:12:25.975Z,952.23
2016-08-17T11:13:25.539Z,952.27
2016-08-17T11:14:28.771Z,952.25
2016-08-17T11:16:33.798Z,952.23
2016-08-17T11:17:32.021Z,952.24
2016-08-17T11:20:18.504Z,952.20
2016-08-17T11:21:25.745Z,952.22
2016-08-17T11:22:25.992Z,952.21
2016-08-17T11:23:26.234Z,952.19
2016-08-17T11:24:28.370Z,952.20
2016-08-17T11:25:33.348Z,952.21
2016-08-17T11:26:25.122Z,952.25
2016-08-17T11:27:29.258Z,952.25
2016-08-17T11:28:28.386Z,952.24
2016-08-17T11:29:18.514Z,952.20
2016-08-17T11:30:17.728Z,952.23
2016-08-17T11:31:24.707Z,952.16
2016-08-17T11:32:25.263Z,952.20
2016-08-17T11:33:33.351Z,952.13
2016-08-17T11:34:21.910Z,952.17
2016-08-17T11:35:25.615Z,952.17
2016-08-17T11:36:25.829Z,952.15
2016-08-17T11:37:26.163Z,952.14
2016-08-17T11:38:30.356Z,952.13
2016-08-17T11:39:22.937Z,952.15
2016-08-17T11:40:33.726Z,952.20
2016-08-17T11:41:27.629Z,952.17
2016-08-17T11:42:30.907Z,952.19
2016-08-17T11:43:26.183Z,952.15
2016-08-17T11:44:28.628Z,952.18
2016-08-17T11:45:25.883Z,952.13
2016-08-17T11:46:29.025Z,952.12
2016-08-17T11:47:25.615Z,952.11
2016-08-17T11:48:28.248Z,952.15
2016-08-17T11:49:30.531Z,952.10
2016-08-17T11:50:27.939Z,952.10
2016-08-17T11:51:24.190Z,952.08
2016-08-17T11:52:28.343Z,952.12
2016-08-17T11:53:28.625Z,952.10
2016-08-17T11:54:25.815Z,952.02
2016-08-17T11:55:26.028Z,952.03
2016-08-17T11:56:28.565Z,952.07
2016-08-17T11:57:25.780Z,952.02
2016-08-17T11:58:26.371Z,952.04
2016-08-17T11:59:28.498Z,952.01
2016-08-17T12:00:28.586Z,952.00
2016-08-17T12:01:28.171Z,951.99
2016-08-17T12:02:29.448Z,952.00
2016-08-17T12:03:26.688Z,951.99
2016-08-17T12:04:25.035Z,951.97
2016-08-17T12:05:34.581Z,951.95
2016-08-17T12:06:30.848Z,951.93
2016-08-17T12:07:34.519Z,951.92
2016-08-17T12:08:26.236Z,951.91
2016-08-17T12:09:17.300Z,951.93
2016-08-17T12:10:33.719Z,951.98
2016-08-17T12:12:32.076Z,951.95
2016-08-17T12:13:28.446Z,951.98
2016-08-17T12:15:30.253Z,951.93
2016-08-17T12:16:28.395Z,951.94
2016-08-17T12:17:22.143Z,951.94
2016-08-17T12:18:20.118Z,951.92
2016-08-17T12:19:26.329Z,951.90
2016-08-17T12:20:24.652Z,951.87
2016-08-17T12:22:29.076Z,951.87
2016-08-17T12:23:18.627Z,951.90
2016-08-17T12:24:18.858Z,951.86
2016-08-17T12:25:19.134Z,951.86
2016-08-17T12:26:27.363Z,951.88
2016-08-17T12:29:32.888Z,951.83
2016-08-17T12:30:19.427Z,951.83
2016-08-17T12:32:28.592Z,951.83
2016-08-17T12:33:25.800Z,951.81
2016-08-17T12:34:26.121Z,951.84
2016-08-17T12:35:29.026Z,951.81
2016-08-17T12:36:26.201Z,951.79
2016-08-17T12:37:22.470Z,951.78
2016-08-17T12:38:24.595Z,951.74
2016-08-17T12:39:25.796Z,951.77
2016-08-17T12:40:25.999Z,951.73
2016-08-17T12:41:23.201Z,951.77
2016-08-17T12:42:18.712Z,951.69
2016-08-17T12:43:27.625Z,951.68
2016-08-17T12:44:31.452Z,951.67
2016-08-17T12:45:27.653Z,951.66
2016-08-17T12:46:31.866Z,951.69
2016-08-17T12:48:26.251Z,951.64
2016-08-17T12:49:18.056Z,951.63
2016-08-17T12:50:26.143Z,951.64
2016-08-17T12:51:26.335Z,951.61
2016-08-17T12:52:26.120Z,951.61
2016-08-17T12:53:27.305Z,951.62
2016-08-17T12:54:33.705Z,951.65
2016-08-17T12:55:28.290Z,951.65
2016-08-17T12:56:23.629Z,951.65
2016-08-17T12:57:34.465Z,951.63
2016-08-17T12:58:30.734Z,951.63
2016-08-17T12:59:18.453Z,951.64
2016-08-17T13:00:28.560Z,951.67
2016-08-17T13:02:17.935Z,951.59
2016-08-17T13:04:31.283Z,951.55
2016-08-17T13:07:19.280Z,951.57
2016-08-17T13:08:25.307Z,951.53
2016-08-17T13:09:12.269Z,951.56
2016-08-17T13:10:22.458Z,951.47
2016-08-17T13:12:19.258Z,951.53
2016-08-17T13:13:28.996Z,951.48
2016-08-17T13:14:26.255Z,951.50
2016-08-17T13:15:34.624Z,951.51
2016-08-17T13:16:22.840Z,951.51
2016-08-17T13:18:25.922Z,951.53
2016-08-17T13:19:25.604Z,951.55
2016-08-17T13:21:27.948Z,951.51
2016-08-17T13:22:26.139Z,951.48
2016-08-17T13:23:37.505Z,951.45
2016-08-17T13:24:18.711Z,951.47
2016-08-17T13:25:18.698Z,951.38
2016-08-17T13:26:22.709Z,951.37
2016-08-17T13:27:12.532Z,951.38
2016-08-17T13:28:21.913Z,951.42
2016-08-17T13:29:18.631Z,951.39
2016-08-17T13:30:30.906Z,951.40
2016-08-17T13:31:17.790Z,951.41
2016-08-17T13:32:18.205Z,951.45
2016-08-17T13:33:30.911Z,951.41
2016-08-17T13:34:32.184Z,951.40
2016-08-17T13:35:32.459Z,951.41
2016-08-17T13:36:18.030Z,951.45
2016-08-17T13:37:28.632Z,951.42
2016-08-17T13:38:31.901Z,951.32
2016-08-17T13:39:26.254Z,951.32
2016-08-17T13:40:33.599Z,951.33
2016-08-17T13:41:24.763Z,951.37
2016-08-17T13:42:32.039Z,951.41
2016-08-17T13:43:25.579Z,951.32
2016-08-17T13:45:25.887Z,951.35
2016-08-17T13:51:26.252Z,951.32
2016-08-17T13:52:32.604Z,951.27
2016-08-17T13:53:25.275Z,951.22
2016-08-17T13:55:26.152Z,951.22
2016-08-17T13:56:28.524Z,951.03
2016-08-17T13:58:23.024Z,951.19
2016-08-17T13:59:18.486Z,951.19
2016-08-17T14:01:18.719Z,951.25
2016-08-17T14:02:25.963Z,951.20
2016-08-17T14:04:38.947Z,951.24
2016-08-17T14:05:19.273Z,951.22
2016-08-17T14:07:29.153Z,951.23
2016-08-17T14:09:25.986Z,951.18
2016-08-17T14:10:26.209Z,951.16
2016-08-17T14:11:21.748Z,951.17
2016-08-17T14:12:18.379Z,951.13
2016-08-17T14:13:25.699Z,951.14
2016-08-17T14:15:27.610Z,951.13
2016-08-17T14:17:31.645Z,951.14
2016-08-17T14:18:19.956Z,951.13
2016-08-17T14:19:24.075Z,951.13
2016-08-17T14:20:26.293Z,951.10
2016-08-17T14:21:22.108Z,951.15
2016-08-17T14:22:21.273Z,951.13
2016-08-17T14:23:28.438Z,951.06
2016-08-17T14:24:31.787Z,951.07
2016-08-17T14:25:29.237Z,951.05
2016-08-17T14:26:17.469Z,951.09
2016-08-17T14:27:24.592Z,951.07